Time;durP1;ratioP1;P1;durP2;ratioP2;P2;SDS_P1;SDS_P2;PMS_P1;PMS_P2;Temp;Humidity;BMP_temperature;BMP_pressure;BME280_temperature;BME280_humidity;BME280_pressure;Samples;Min_cycle;Max_cycle;Signal;HPM_P1;HPM_P2
2022/06/18 00:02:18;;;;;;;9.65;3.08;;;20.10;99.90;;;;;;5017694;28;20083;-70
2022/06/18 00:04:45;;;;;;;7.78;3.60;;;20.10;99.90;;;;;;5034500;28;20037;-70
2022/06/18 00:07:15;;;;;;;8.57;3.40;;;20.10;99.90;;;;;;5032911;28;20072;-68
2022/06/18 00:09:43;;;;;;;5.95;3.05;;;20.10;99.90;;;;;;5032849;28;20053;-66
2022/06/18 00:15:04;;;;;;;6.60;3.03;;;20.10;99.90;;;;;;5032719;28;20049;-66
2022/06/18 00:17:30;;;;;;;5.40;3.50;;;20.00;99.90;;;;;;5032495;28;20037;-66
2022/06/18 00:19:55;;;;;;;5.60;3.58;;;20.10;99.90;;;;;;5032612;28;20046;-66
2022/06/18 00:22:23;;;;;;;8.38;3.05;;;20.10;99.90;;;;;;5016189;28;20089;-69
2022/06/18 00:24:49;;;;;;;8.65;3.70;;;20.10;99.90;;;;;;5032590;28;20076;-70
2022/06/18 00:27:16;;;;;;;9.77;3.25;;;20.00;99.90;;;;;;5032307;28;20042;-69
2022/06/18 00:29:43;;;;;;;7.47;3.15;;;20.00;99.90;;;;;;5033850;28;20081;-68
2022/06/18 00:32:09;;;;;;;6.00;3.03;;;20.00;99.90;;;;;;5032421;28;20049;-68
2022/06/18 00:34:35;;;;;;;7.97;3.20;;;20.10;99.90;;;;;;5032626;28;20049;-68
2022/06/18 00:37:03;;;;;;;4.80;3.10;;;20.00;99.90;;;;;;5032740;28;20455;-68
2022/06/18 00:39:29;;;;;;;5.45;3.40;;;20.10;99.90;;;;;;5032783;28;20041;-70
2022/06/18 00:42:06;;;;;;;7.88;3.58;;;20.10;99.90;;;;;;5033033;28;20045;-70
2022/06/18 00:44:35;;;;;;;6.40;3.75;;;20.00;99.90;;;;;;5033920;28;20159;-70
2022/06/18 00:47:19;;;;;;;8.52;3.85;;;20.00;99.90;;;;;;5033687;28;20465;-70
2022/06/18 00:49:59;;;;;;;7.38;4.03;;;20.00;99.90;;;;;;5033692;28;20045;-70
2022/06/18 00:52:36;;;;;;;8.48;3.83;;;20.00;99.90;;;;;;5016151;28;20045;-66
2022/06/18 00:55:25;;;;;;;6.97;3.70;;;19.90;99.90;;;;;;5032346;28;20509;-66
2022/06/18 00:58:02;;;;;;;6.18;3.60;;;19.90;99.90;;;;;;5032153;28;20534;-66
2022/06/18 01:00:40;;;;;;;6.30;3.63;;;19.90;99.90;;;;;;5032070;28;20049;-66
2022/06/18 01:03:21;;;;;;;7.95;4.10;;;19.80;99.90;;;;;;5031915;28;20044;-66
2022/06/18 01:05:46;;;;;;;9.13;4.25;;;19.70;99.90;;;;;;5031992;28;20048;-66
2022/06/18 01:08:16;;;;;;;6.40;3.90;;;19.70;99.90;;;;;;5032430;28;20100;-70
2022/06/18 01:10:46;;;;;;;7.25;4.22;;;19.70;99.90;;;;;;5016877;28;20124;-70
2022/06/18 01:13:17;;;;;;;7.85;3.90;;;19.70;99.90;;;;;;5017399;28;20072;-70
2022/06/18 01:15:44;;;;;;;12.57;4.47;;;19.70;99.90;;;;;;5034275;28;20049;-70
2022/06/18 01:18:11;;;;;;;8.07;4.25;;;19.70;99.90;;;;;;5033475;28;20049;-70
2022/06/18 01:20:49;;;;;;;6.75;4.93;;;19.70;99.90;;;;;;5032991;28;20049;-70
2022/06/18 01:23:33;;;;;;;10.18;4.90;;;19.80;99.90;;;;;;5033412;28;20038;-70
2022/06/18 01:25:59;;;;;;;9.35;5.25;;;19.80;99.90;;;;;;5033425;28;20048;-69
2022/06/18 01:28:25;;;;;;;11.65;5.10;;;19.80;99.90;;;;;;5033323;28;20117;-70
2022/06/18 01:30:50;;;;;;;7.75;5.35;;;19.80;99.90;;;;;;5033072;28;20402;-70
2022/06/18 01:33:17;;;;;;;10.43;5.30;;;19.80;99.90;;;;;;5033210;28;20102;-70
2022/06/18 01:35:46;;;;;;;9.50;5.10;;;19.70;99.90;;;;;;5033292;28;20052;-70
2022/06/18 01:38:12;;;;;;;9.80;5.10;;;19.70;99.90;;;;;;5033492;28;20042;-70
2022/06/18 01:41:49;;;;;;;9.60;5.85;;;19.70;99.90;;;;;;5016884;28;20042;-70
2022/06/18 01:43:54;;;;;;;6.03;5.22;;;19.70;99.90;;;;;;5033018;28;20045;-71
2022/06/18 01:46:19;;;;;;;10.05;5.85;;;19.60;99.90;;;;;;5033293;28;20389;-70
2022/06/18 01:48:48;;;;;;;10.75;5.43;;;19.60;99.90;;;;;;5033148;28;20489;-70
2022/06/18 01:51:23;;;;;;;8.00;5.18;;;19.60;99.90;;;;;;5016750;28;20041;-70
2022/06/18 01:53:58;;;;;;;8.02;5.72;;;19.60;99.90;;;;;;5034178;28;20524;-70
2022/06/18 01:56:34;;;;;;;11.00;5.78;;;19.60;99.90;;;;;;5037081;28;20076;-70
2022/06/18 01:59:08;;;;;;;8.77;5.80;;;19.60;99.90;;;;;;5036586;28;20414;-70
2022/06/18 02:01:39;;;;;;;10.80;5.70;;;19.60;99.90;;;;;;5036844;28;20127;-68
2022/06/18 02:04:05;;;;;;;11.30;5.68;;;19.60;99.90;;;;;;5035246;28;20048;-68
2022/06/18 02:06:34;;;;;;;12.43;5.90;;;19.60;99.90;;;;;;5035594;28;20509;-70
2022/06/18 02:09:04;;;;;;;11.27;5.72;;;19.60;99.90;;;;;;5036759;28;20448;-70
2022/06/18 02:11:30;;;;;;;9.20;5.70;;;19.60;99.90;;;;;;5035139;28;20124;-70
2022/06/18 02:14:01;;;;;;;10.93;5.85;;;19.60;99.90;;;;;;5034972;28;20183;-70
2022/06/18 02:16:30;;;;;;;12.93;6.13;;;19.60;99.90;;;;;;5035176;28;20041;-70
2022/06/18 02:18:59;;;;;;;23.98;6.82;;;19.60;99.90;;;;;;5034844;28;20052;-70
2022/06/18 02:21:25;;;;;;;12.55;5.93;;;19.60;99.90;;;;;;5035111;28;20504;-70
2022/06/18 02:23:54;;;;;;;10.77;6.13;;;19.70;99.90;;;;;;5035059;28;20115;-70
2022/06/18 02:26:22;;;;;;;11.00;5.90;;;19.70;99.90;;;;;;5035983;28;20160;-69
2022/06/18 02:28:50;;;;;;;10.45;5.50;;;19.70;99.90;;;;;;5036001;28;20055;-69
2022/06/18 02:31:23;;;;;;;8.55;5.95;;;19.70;99.90;;;;;;5034659;28;20398;-66
2022/06/18 02:34:04;;;;;;;9.63;6.30;;;19.70;99.90;;;;;;5034682;28;20049;-66
2022/06/18 02:36:32;;;;;;;9.02;6.38;;;19.70;99.90;;;;;;5034609;28;20084;-66
2022/06/18 02:39:09;;;;;;;11.20;6.03;;;19.70;99.90;;;;;;5018185;28;20045;-66
2022/06/18 02:41:38;;;;;;;15.65;7.07;;;19.70;99.90;;;;;;5034546;28;20509;-66
2022/06/18 02:44:04;;;;;;;11.98;6.72;;;19.60;99.90;;;;;;5035709;28;20056;-66
2022/06/18 02:46:30;;;;;;;9.63;6.22;;;19.60;99.90;;;;;;5034490;28;20394;-66
2022/06/18 02:49:00;;;;;;;14.27;5.57;;;19.60;99.90;;;;;;5034312;28;20037;-66
2022/06/18 02:51:26;;;;;;;11.18;6.30;;;19.60;99.90;;;;;;5034373;28;20116;-66
2022/06/18 02:53:52;;;;;;;9.85;6.28;;;19.50;99.90;;;;;;5034474;28;20474;-66
2022/06/18 02:56:17;;;;;;;8.23;6.32;;;19.50;99.90;;;;;;5034153;28;20052;-66
2022/06/18 02:58:47;;;;;;;9.25;6.05;;;19.50;99.90;;;;;;5034308;28;20037;-66
2022/06/18 03:01:29;;;;;;;10.70;6.20;;;19.40;99.90;;;;;;5034369;28;20076;-66
2022/06/18 03:04:00;;;;;;;11.02;6.53;;;19.50;99.90;;;;;;5034396;28;20064;-66
2022/06/18 03:06:28;;;;;;;8.15;6.57;;;19.50;99.90;;;;;;5033904;28;20079;-66
2022/06/18 03:08:55;;;;;;;8.02;6.15;;;19.40;99.90;;;;;;5034234;28;20094;-69
2022/06/18 03:14:10;;;;;;;11.70;6.97;;;19.50;99.90;;;;;;5034143;28;20434;-70
2022/06/18 03:16:36;;;;;;;11.40;7.20;;;19.40;99.90;;;;;;5034203;28;20121;-70
2022/06/18 03:19:03;;;;;;;12.25;6.85;;;19.40;99.90;;;;;;5033748;28;20053;-70
2022/06/18 03:21:36;;;;;;;9.38;6.43;;;19.40;99.90;;;;;;5034241;28;20056;-70
2022/06/18 03:24:03;;;;;;;8.13;6.47;;;19.40;99.90;;;;;;5035021;28;20099;-70
2022/06/18 03:26:29;;;;;;;9.48;6.38;;;19.40;99.90;;;;;;5033817;28;20402;-69
2022/06/18 03:28:54;;;;;;;11.93;7.00;;;19.30;99.90;;;;;;5034900;28;20498;-68
2022/06/18 03:31:20;;;;;;;9.65;6.13;;;19.30;99.90;;;;;;5033773;28;20048;-68
2022/06/18 03:33:47;;;;;;;12.13;6.95;;;19.30;99.90;;;;;;5035041;28;20037;-68
2022/06/18 03:36:17;;;;;;;11.13;7.47;;;19.30;99.90;;;;;;5033299;28;20045;-68
2022/06/18 03:38:43;;;;;;;12.35;7.68;;;19.20;99.90;;;;;;5033371;28;20049;-68
2022/06/18 03:41:10;;;;;;;12.25;7.38;;;19.20;99.90;;;;;;5033647;28;20033;-68
2022/06/18 03:43:36;;;;;;;10.98;6.93;;;19.20;99.90;;;;;;5017071;28;20476;-68
2022/06/18 03:46:07;;;;;;;12.55;7.47;;;19.10;99.90;;;;;;5034442;28;20079;-68
2022/06/18 03:48:57;;;;;;;14.57;7.38;;;19.20;99.90;;;;;;5033574;28;20041;-69
2022/06/18 03:51:23;;;;;;;13.57;7.57;;;19.20;99.90;;;;;;5034532;28;20037;-70
2022/06/18 03:53:50;;;;;;;9.63;7.03;;;19.10;99.90;;;;;;5034653;28;20041;-70
2022/06/18 03:56:19;;;;;;;13.77;7.97;;;19.10;99.90;;;;;;5033939;28;20144;-70
2022/06/18 03:58:45;;;;;;;12.60;8.30;;;19.10;99.90;;;;;;5034229;28;20071;-70
2022/06/18 04:01:14;;;;;;;10.88;7.25;;;19.10;99.90;;;;;;5034028;28;20041;-71
2022/06/18 04:03:39;;;;;;;13.85;8.73;;;19.20;99.90;;;;;;5034167;28;20037;-71
2022/06/18 04:06:06;;;;;;;13.88;8.68;;;19.10;99.90;;;;;;5034132;28;20067;-70
2022/06/18 04:08:31;;;;;;;15.07;8.82;;;19.10;99.90;;;;;;5033887;28;20037;-70
2022/06/18 04:10:58;;;;;;;12.98;8.82;;;19.10;99.90;;;;;;5033764;28;20120;-70
2022/06/18 04:13:24;;;;;;;14.07;9.30;;;19.10;99.90;;;;;;5016994;28;20083;-70
2022/06/18 04:15:49;;;;;;;16.35;9.82;;;19.10;99.90;;;;;;5033464;28;20041;-71
2022/06/18 04:18:15;;;;;;;18.77;9.65;;;19.10;99.90;;;;;;5032850;28;20393;-66
2022/06/18 04:20:42;;;;;;;13.38;8.77;;;19.10;99.90;;;;;;5032523;28;20497;-66
2022/06/18 04:23:09;;;;;;;16.30;8.80;;;19.10;99.90;;;;;;5033089;28;20041;-66
2022/06/18 04:25:35;;;;;;;18.15;10.10;;;19.10;99.90;;;;;;5032536;28;20080;-66
2022/06/18 04:28:00;;;;;;;18.67;9.15;;;19.10;99.90;;;;;;5032415;28;20073;-66
2022/06/18 04:30:29;;;;;;;18.05;10.10;;;19.10;99.90;;;;;;5032704;28;20163;-68
2022/06/18 04:32:55;;;;;;;20.85;9.98;;;19.10;99.90;;;;;;5032580;28;20049;-68
2022/06/18 04:35:21;;;;;;;19.23;10.07;;;19.10;99.90;;;;;;5032642;28;20521;-68
2022/06/18 04:37:48;;;;;;;19.33;9.82;;;19.10;99.90;;;;;;5033411;28;20072;-70
2022/06/18 04:40:20;;;;;;;22.83;9.95;;;19.10;99.90;;;;;;5034247;28;20109;-70
2022/06/18 04:42:46;;;;;;;14.90;9.60;;;19.10;99.90;;;;;;5034615;28;20494;-70
2022/06/18 04:45:12;;;;;;;17.40;10.70;;;19.20;99.90;;;;;;5033872;28;20134;-70
2022/06/18 04:47:40;;;;;;;17.95;10.07;;;19.10;99.90;;;;;;5032933;28;20107;-68
2022/06/18 04:50:08;;;;;;;17.90;10.43;;;19.10;99.90;;;;;;5032375;28;20045;-66
2022/06/18 04:52:34;;;;;;;17.65;10.98;;;19.20;99.90;;;;;;5032936;28;20049;-66
2022/06/18 04:54:59;;;;;;;21.30;12.13;;;19.20;99.90;;;;;;5032324;28;20049;-66
2022/06/18 04:57:25;;;;;;;21.10;10.55;;;19.20;99.90;;;;;;5031988;28;20095;-69
2022/06/18 04:59:50;;;;;;;22.13;11.48;;;19.20;99.90;;;;;;5033412;28;20051;-69
2022/06/18 05:02:25;;;;;;;20.40;10.68;;;19.20;99.90;;;;;;5032208;28;20033;-69
2022/06/18 05:04:53;;;;;;;22.25;10.63;;;19.30;99.90;;;;;;5032198;28;20057;-69
2022/06/18 05:07:18;;;;;;;20.23;11.77;;;19.20;99.90;;;;;;5032098;28;20041;-69
2022/06/18 05:09:44;;;;;;;20.30;12.02;;;19.30;99.90;;;;;;5033236;28;20052;-69
2022/06/18 05:12:12;;;;;;;28.45;12.85;;;19.30;99.90;;;;;;5032127;28;20551;-70
2022/06/18 05:14:38;;;;;;;22.63;12.95;;;19.30;99.90;;;;;;5031858;28;20411;-70
2022/06/18 05:17:05;;;;;;;25.27;11.88;;;19.30;99.90;;;;;;5033757;28;20042;-70
2022/06/18 05:19:33;;;;;;;23.42;12.13;;;19.30;99.90;;;;;;5033610;28;20037;-70
2022/06/18 05:21:59;;;;;;;24.30;12.43;;;19.40;99.90;;;;;;5034515;28;20033;-70
2022/06/18 05:24:25;;;;;;;28.85;13.80;;;19.40;99.90;;;;;;5034170;28;20453;-70
2022/06/18 05:26:55;;;;;;;25.20;11.93;;;19.30;99.90;;;;;;5033875;28;20485;-70
2022/06/18 05:29:21;;;;;;;22.20;12.65;;;19.40;99.90;;;;;;5037682;28;20041;-70
2022/06/18 05:31:47;;;;;;;30.20;13.30;;;19.40;99.90;;;;;;5021231;28;20088;-70
2022/06/18 05:34:13;;;;;;;25.60;13.10;;;19.50;99.90;;;;;;5037878;28;20057;-70
2022/06/18 05:36:39;;;;;;;23.23;13.30;;;19.40;99.90;;;;;;5021268;28;20382;-70
2022/06/18 05:39:06;;;;;;;23.70;12.82;;;19.40;99.90;;;;;;5036593;28;20041;-68
2022/06/18 05:41:32;;;;;;;23.95;13.18;;;19.50;99.90;;;;;;5035931;28;20154;-68
2022/06/18 05:43:58;;;;;;;27.77;13.90;;;19.40;99.90;;;;;;5035624;28;20042;-68
2022/06/18 05:46:23;;;;;;;20.88;13.23;;;19.50;99.90;;;;;;5035440;28;20067;-68
2022/06/18 05:48:49;;;;;;;19.08;12.77;;;19.50;99.90;;;;;;5035945;28;20041;-68
2022/06/18 05:51:15;;;;;;;22.27;14.27;;;19.60;99.90;;;;;;5035952;28;20048;-68
2022/06/18 05:53:40;;;;;;;23.65;13.55;;;19.60;99.90;;;;;;5035435;28;20537;-68
2022/06/18 05:56:06;;;;;;;27.95;13.57;;;19.70;99.90;;;;;;5038252;28;20041;-70
2022/06/18 05:58:32;;;;;;;24.13;12.75;;;19.80;99.90;;;;;;5036312;28;20481;-69
2022/06/18 06:00:57;;;;;;;21.63;12.55;;;19.80;99.90;;;;;;5035287;28;20049;-70
2022/06/18 06:03:23;;;;;;;22.65;13.13;;;19.90;99.90;;;;;;5035249;28;20045;-70
2022/06/18 06:05:49;;;;;;;24.25;12.60;;;19.90;99.90;;;;;;5035156;28;20076;-70
2022/06/18 06:08:15;;;;;;;23.77;12.60;;;20.00;99.90;;;;;;5034991;28;20041;-69
2022/06/18 06:13:27;;;;;;;21.70;12.32;;;20.00;99.90;;;;;;5035038;28;20489;-68
2022/06/18 06:15:53;;;;;;;21.35;12.38;;;20.00;99.90;;;;;;5034974;28;20045;-68
2022/06/18 06:18:21;;;;;;;23.52;12.05;;;20.10;99.90;;;;;;5034782;28;20044;-68
2022/06/18 06:20:50;;;;;;;29.52;13.63;;;20.10;99.90;;;;;;5035047;28;20045;-68
2022/06/18 06:23:16;;;;;;;26.13;12.65;;;20.20;99.90;;;;;;5034833;28;20474;-68
2022/06/18 06:25:44;;;;;;;23.33;12.77;;;20.20;99.90;;;;;;5036343;28;20056;-68
2022/06/18 06:28:14;;;;;;;28.65;13.32;;;20.20;99.90;;;;;;5035134;28;20048;-68
2022/06/18 06:30:40;;;;;;;24.80;13.60;;;20.30;99.90;;;;;;5035064;28;20060;-68
2022/06/18 06:33:06;;;;;;;19.50;11.73;;;20.30;99.90;;;;;;5034724;28;20417;-68
2022/06/18 06:35:31;;;;;;;23.00;11.75;;;20.30;99.90;;;;;;5034588;28;20144;-67
2022/06/18 06:37:57;;;;;;;19.52;12.35;;;20.40;99.90;;;;;;5036983;28;20041;-70
2022/06/18 06:40:24;;;;;;;20.75;11.20;;;20.40;99.90;;;;;;5033906;28;20064;-66
2022/06/18 06:42:52;;;;;;;24.42;11.80;;;20.50;99.90;;;;;;5034520;28;20049;-66
2022/06/18 06:45:23;;;;;;;18.55;10.35;;;20.60;99.90;;;;;;5034634;28;20430;-66
2022/06/18 06:47:50;;;;;;;18.77;11.07;;;20.60;99.90;;;;;;5034436;28;20042;-66
2022/06/18 06:50:17;;;;;;;23.13;11.00;;;20.70;99.90;;;;;;5034533;28;20092;-66
2022/06/18 06:52:43;;;;;;;23.17;10.70;;;20.80;99.90;;;;;;5034608;28;20119;-66
2022/06/18 06:58:03;;;;;;;27.33;9.20;;;21.00;99.90;;;;;;5034083;28;20514;-66
2022/06/18 07:00:31;;;;;;;22.45;9.38;;;21.10;99.90;;;;;;5034101;28;20052;-66
2022/06/18 07:02:57;;;;;;;17.58;7.55;;;21.20;99.90;;;;;;5034155;28;20045;-66
2022/06/18 07:05:23;;;;;;;15.77;7.15;;;21.30;99.90;;;;;;5034605;28;20041;-66
2022/06/18 07:07:48;;;;;;;16.63;6.82;;;21.30;99.90;;;;;;5034171;28;20391;-66
2022/06/18 07:10:14;;;;;;;21.83;7.65;;;21.40;99.90;;;;;;5034321;28;20049;-70
2022/06/18 07:12:40;;;;;;;12.90;5.85;;;21.60;99.90;;;;;;5037448;28;20056;-70
2022/06/18 07:15:07;;;;;;;17.65;6.47;;;21.60;99.90;;;;;;5019614;28;20041;-66
2022/06/18 07:17:33;;;;;;;14.25;6.57;;;21.70;99.90;;;;;;5033710;28;20513;-66
2022/06/18 07:19:59;;;;;;;13.32;5.68;;;21.80;99.90;;;;;;5033738;28;20493;-70
2022/06/18 07:22:25;;;;;;;15.20;5.68;;;21.90;99.90;;;;;;5034051;28;20050;-70
2022/06/18 07:24:51;;;;;;;12.52;5.43;;;22.00;99.90;;;;;;5033631;28;20033;-69
2022/06/18 07:27:17;;;;;;;12.80;5.30;;;22.10;99.90;;;;;;5033852;28;20094;-70
2022/06/18 07:29:42;;;;;;;12.27;4.80;;;22.10;99.90;;;;;;5033528;28;20493;-68
2022/06/18 07:32:13;;;;;;;13.98;5.50;;;22.20;99.90;;;;;;5033768;28;20125;-68
2022/06/18 07:34:39;;;;;;;17.67;5.85;;;22.30;99.90;;;;;;5034397;28;20052;-68
2022/06/18 07:37:04;;;;;;;15.05;5.72;;;22.30;99.90;;;;;;5033415;28;20037;-69
2022/06/18 07:39:30;;;;;;;10.45;4.90;;;22.40;99.90;;;;;;5033525;28;20099;-68
2022/06/18 07:41:56;;;;;;;17.33;5.78;;;22.50;99.90;;;;;;5034125;28;20114;-68
2022/06/18 07:44:22;;;;;;;16.08;5.22;;;22.60;99.90;;;;;;5033181;28;20406;-68
2022/06/18 07:46:49;;;;;;;15.32;4.22;;;22.60;99.90;;;;;;5033203;28;20099;-68
2022/06/18 07:49:15;;;;;;;14.40;5.40;;;22.70;99.90;;;;;;5033266;28;20136;-68
2022/06/18 07:51:44;;;;;;;12.65;4.60;;;22.80;99.90;;;;;;5015890;28;20049;-68
2022/06/18 07:54:14;;;;;;;14.73;4.55;;;22.90;99.90;;;;;;5033171;28;20037;-67
2022/06/18 07:56:40;;;;;;;7.97;4.43;;;23.00;99.90;;;;;;5033093;28;20049;-68
2022/06/18 07:59:06;;;;;;;11.70;4.47;;;23.00;99.90;;;;;;5032891;28;20095;-68
2022/06/18 08:01:31;;;;;;;12.25;4.30;;;23.10;99.90;;;;;;5032934;28;20048;-68
2022/06/18 08:03:57;;;;;;;11.20;4.05;;;23.20;99.90;;;;;;5032804;28;20047;-68
2022/06/18 08:06:22;;;;;;;14.32;4.45;;;23.30;99.90;;;;;;5032711;28;20072;-68
2022/06/18 08:08:48;;;;;;;12.38;3.67;;;23.40;99.90;;;;;;5032831;28;20047;-68
2022/06/18 08:11:16;;;;;;;10.02;4.00;;;23.50;99.90;;;;;;5032966;28;20046;-68
2022/06/18 08:13:41;;;;;;;11.90;3.95;;;23.70;99.90;;;;;;5032759;28;20041;-68
2022/06/18 08:16:09;;;;;;;11.57;4.18;;;23.70;99.90;;;;;;5032647;28;20087;-68
2022/06/18 08:18:35;;;;;;;11.77;4.00;;;23.90;99.90;;;;;;5032691;28;20524;-68
2022/06/18 08:21:15;;;;;;;12.63;4.50;;;23.90;99.90;;;;;;5032605;28;20084;-68
2022/06/18 08:23:41;;;;;;;10.77;4.22;;;24.00;99.90;;;;;;5032685;28;20046;-68
2022/06/18 08:26:07;;;;;;;10.43;4.10;;;24.00;99.90;;;;;;5032740;28;20120;-68
2022/06/18 08:28:34;;;;;;;9.88;4.00;;;24.00;99.90;;;;;;5032476;28;20049;-68
2022/06/18 08:31:02;;;;;;;9.65;3.75;;;24.10;99.90;;;;;;5032525;28;20410;-68
2022/06/18 08:33:29;;;;;;;7.32;3.13;;;24.10;99.90;;;;;;5033970;28;20046;-68
2022/06/18 08:35:57;;;;;;;9.38;2.88;;;24.20;99.90;;;;;;5032698;28;20501;-68
2022/06/18 08:38:23;;;;;;;11.30;3.38;;;24.30;99.90;;;;;;5032332;28;20502;-68
2022/06/18 08:41:16;;;;;;;8.68;3.17;;;24.40;99.90;;;;;;5032270;28;20045;-68
2022/06/18 08:44:08;;;;;;;10.20;3.63;;;24.50;99.90;;;;;;5032311;28;20037;-68
2022/06/18 08:47:05;;;;;;;11.03;3.60;;;24.60;99.90;;;;;;5002421;28;20057;-68
2022/06/18 08:50:01;;;;;;;8.60;3.53;;;24.60;99.90;;;;;;5032093;28;20494;-68
2022/06/18 08:52:40;;;;;;;9.18;3.58;;;24.70;99.90;;;;;;5032252;28;20099;-68
2022/06/18 08:55:26;;;;;;;7.40;2.78;;;24.80;99.90;;;;;;5032346;28;20073;-68
2022/06/18 08:58:00;;;;;;;8.38;3.25;;;24.90;99.90;;;;;;5032284;28;20051;-68
2022/06/18 09:00:44;;;;;;;8.30;3.00;;;24.90;99.90;;;;;;5031987;28;20107;-68
2022/06/18 09:03:22;;;;;;;7.82;2.90;;;24.90;99.90;;;;;;5031624;28;20068;-68
2022/06/18 09:06:34;;;;;;;8.02;3.05;;;25.10;99.90;;;;;;5032344;28;20049;-68
2022/06/18 09:09:27;;;;;;;8.13;2.92;;;25.20;99.90;;;;;;4956306;28;20043;-68
2022/06/18 09:12:15;;;;;;;8.75;3.35;;;25.20;99.90;;;;;;5032023;28;20041;-68
2022/06/18 09:15:02;;;;;;;11.32;2.85;;;25.30;99.90;;;;;;5015529;28;20541;-68
2022/06/18 09:17:35;;;;;;;7.82;3.00;;;25.40;99.90;;;;;;5031916;28;20043;-68
2022/06/18 09:20:04;;;;;;;;;;;25.50;99.90;;;;;;5032429;28;20409;-66
2022/06/18 09:22:32;;;;;;;15.10;3.85;;;25.60;99.90;;;;;;5032264;28;19917;-68
2022/06/18 09:25:08;;;;;;;8.93;3.20;;;25.60;99.90;;;;;;5031920;28;20060;-69
2022/06/18 09:27:43;;;;;;;10.70;3.05;;;25.60;99.90;;;;;;5031903;28;20053;-69
2022/06/18 09:30:19;;;;;;;10.27;2.90;;;25.80;99.90;;;;;;5031845;28;20045;-73
2022/06/18 09:32:54;;;;;;;10.30;3.35;;;25.90;99.90;;;;;;5031749;28;20095;-70
2022/06/18 09:36:01;;;;;;;9.18;3.47;;;26.00;99.90;;;;;;5031643;28;20041;-70
2022/06/18 09:38:47;;;;;;;10.10;2.92;;;26.10;99.90;;;;;;5003378;28;20417;-70
2022/06/18 09:41:27;;;;;;;9.40;2.97;;;26.10;99.90;;;;;;5031615;28;20084;-70
2022/06/18 09:43:57;;;;;;;9.15;3.00;;;26.20;99.90;;;;;;5031679;28;20568;-70
2022/06/18 09:46:30;;;;;;;10.60;3.45;;;26.30;99.90;;;;;;5031490;28;20041;-70
2022/06/18 09:48:55;;;;;;;9.73;3.10;;;26.40;99.90;;;;;;5032095;28;20033;-69
2022/06/18 09:51:54;;;;;;;10.23;3.50;;;26.40;99.90;;;;;;5031789;28;20612;-70
2022/06/18 09:54:21;;;;;;;7.68;2.50;;;26.50;99.90;;;;;;5033044;28;20112;-69
2022/06/18 09:56:52;;;;;;;8.85;2.88;;;26.60;99.90;;;;;;5033120;28;20109;-69
2022/06/18 09:59:35;;;;;;;6.75;2.40;;;26.80;99.90;;;;;;5031321;28;20045;-70
2022/06/18 10:02:02;;;;;;;5.72;2.50;;;26.90;99.90;;;;;;5031670;28;20386;-70
2022/06/18 10:07:20;;;;;;;9.95;2.30;;;27.20;99.90;;;;;;5031282;28;20049;-70
2022/06/18 10:09:54;;;;;;;7.00;2.47;;;27.30;99.90;;;;;;5031339;28;20049;-70
2022/06/18 10:12:22;;;;;;;5.93;2.13;;;27.40;99.50;;;;;;5031434;28;20053;-70
2022/06/18 10:14:58;;;;;;;6.25;2.50;;;27.50;99.90;;;;;;5032218;28;20038;-70
2022/06/18 10:17:26;;;;;;;8.23;2.72;;;27.60;99.90;;;;;;5035190;28;20526;-70
2022/06/18 10:20:16;;;;;;;9.15;2.72;;;27.60;99.70;;;;;;5035232;28;20072;-70
2022/06/18 10:23:09;;;;;;;8.85;2.53;;;27.60;99.40;;;;;;5035039;28;20037;-70
2022/06/18 10:25:43;;;;;;;;;;;27.70;99.40;;;;;;5035739;28;20092;-70
2022/06/18 10:28:37;;;;;;;7.60;2.72;;;27.60;99.50;;;;;;5035753;28;19943;-70
2022/06/18 10:31:25;;;;;;;7.65;1.88;;;27.70;97.50;;;;;;5034756;28;20041;-70
2022/06/18 10:33:50;;;;;;;6.30;2.10;;;27.80;97.80;;;;;;5034725;28;20535;-70
2022/06/18 10:36:33;;;;;;;11.57;1.90;;;28.00;96.70;;;;;;5018181;28;20045;-70
2022/06/18 10:39:05;;;;;;;;;;;28.00;98.20;;;;;;5019330;28;20041;-70
2022/06/18 10:42:08;;;;;;;8.23;2.28;;;28.10;98.00;;;;;;5035131;28;19921;-70
2022/06/18 10:45:03;;;;;;;7.55;2.03;;;28.20;98.20;;;;;;5034544;28;20053;-69
2022/06/18 10:47:41;;;;;;;6.50;2.00;;;28.40;96.40;;;;;;5034349;28;20556;-69
2022/06/18 10:50:14;;;;;;;5.88;1.80;;;28.40;98.40;;;;;;5034452;28;20497;-69
2022/06/18 10:52:40;;;;;;;6.90;2.50;;;28.30;92.70;;;;;;5035228;28;20410;-70
2022/06/18 10:55:11;;;;;;;10.30;2.08;;;28.30;92.80;;;;;;5035531;28;20050;-70
2022/06/18 10:57:37;;;;;;;8.13;2.13;;;28.40;91.70;;;;;;5034705;28;20064;-69
2022/06/18 11:00:10;;;;;;;6.25;1.35;;;28.40;93.30;;;;;;5034513;28;20938;-69
2022/06/18 11:02:39;;;;;;;5.93;1.95;;;28.60;95.80;;;;;;5034113;28;20432;-69
2022/06/18 11:05:23;;;;;;;5.47;1.52;;;28.70;93.50;;;;;;5035676;28;20033;-69
2022/06/18 11:07:51;;;;;;;4.65;1.33;;;28.90;91.60;;;;;;5034181;28;20445;-69
2022/06/18 11:10:24;;;;;;;7.22;1.73;;;29.00;92.60;;;;;;5035794;28;20041;-69
2022/06/18 11:12:53;;;;;;;7.65;1.48;;;29.10;92.40;;;;;;5034033;28;20103;-69
2022/06/18 11:15:25;;;;;;;5.15;1.40;;;29.20;92.00;;;;;;5034370;28;20037;-69
2022/06/18 11:17:51;;;;;;;5.57;1.58;;;29.40;92.40;;;;;;5033879;28;20041;-69
2022/06/18 11:20:23;;;;;;;6.25;1.40;;;29.50;91.70;;;;;;5033938;28;20052;-70
2022/06/18 11:22:57;;;;;;;4.35;1.30;;;29.60;92.40;;;;;;5034351;28;20041;-70
2022/06/18 11:25:43;;;;;;;4.60;1.27;;;29.60;90.10;;;;;;5033560;28;20041;-70
2022/06/18 11:28:19;;;;;;;10.32;1.40;;;29.70;90.50;;;;;;5033657;28;20176;-69
2022/06/18 11:30:46;;;;;;;4.32;1.27;;;29.70;89.40;;;;;;5033726;28;20041;-69
2022/06/18 11:33:23;;;;;;;3.90;1.38;;;29.80;93.10;;;;;;5033880;28;20094;-70
2022/06/18 11:35:50;;;;;;;3.60;1.17;;;29.80;86.30;;;;;;5033886;28;20045;-70
2022/06/18 11:38:33;;;;;;;5.25;1.15;;;29.80;89.40;;;;;;5034595;28;20045;-70
2022/06/18 11:41:22;;;;;;;6.00;1.38;;;29.80;87.00;;;;;;5033645;28;20069;-70
2022/06/18 11:44:23;;;;;;;3.97;1.23;;;29.60;89.10;;;;;;5033483;28;20044;-70
2022/06/18 11:47:03;;;;;;;4.20;1.60;;;29.60;89.80;;;;;;4991799;28;20058;-69
2022/06/18 11:49:43;;;;;;;5.38;1.40;;;29.70;90.80;;;;;;5033355;28;20129;-70
2022/06/18 11:52:43;;;;;;;4.88;1.50;;;29.80;89.60;;;;;;5033298;28;20087;-70
2022/06/18 11:55:32;;;;;;;6.03;1.30;;;30.00;86.90;;;;;;5033437;28;20132;-70
2022/06/18 11:58:18;;;;;;;6.00;1.35;;;30.10;83.20;;;;;;5033098;28;20080;-69
2022/06/18 12:00:52;;;;;;;3.08;1.25;;;30.20;84.60;;;;;;5033012;28;20045;-69
2022/06/18 12:03:47;;;;;;;5.28;1.30;;;30.30;86.40;;;;;;5033062;28;20041;-70
2022/06/18 12:06:22;;;;;;;6.10;1.52;;;30.40;81.50;;;;;;5016727;28;20044;-69
2022/06/18 12:08:47;;;;;;;3.88;1.27;;;30.30;84.40;;;;;;5032950;28;20076;-69
2022/06/18 12:11:35;;;;;;;6.85;1.55;;;30.30;83.30;;;;;;5033346;28;20045;-70
2022/06/18 12:14:08;;;;;;;4.97;1.30;;;30.40;81.90;;;;;;5032961;28;20500;-69
2022/06/18 12:16:44;;;;;;;4.95;1.13;;;30.50;85.20;;;;;;5033184;28;20414;-69
2022/06/18 12:19:28;;;;;;;4.70;1.10;;;30.70;83.10;;;;;;5032928;28;20390;-69
2022/06/18 12:22:08;;;;;;;4.30;1.13;;;30.90;80.50;;;;;;5032731;28;20045;-69
2022/06/18 12:24:34;;;;;;;2.28;0.80;;;30.90;75.60;;;;;;5032670;28;20041;-70
2022/06/18 12:27:10;;;;;;;6.63;1.40;;;31.00;75.60;;;;;;5032484;28;20044;-69
2022/06/18 12:30:10;;;;;;;6.25;1.38;;;31.10;74.10;;;;;;5032792;28;20045;-70
2022/06/18 12:32:50;;;;;;;6.68;1.33;;;31.10;73.40;;;;;;5026091;28;20056;-70
2022/06/18 12:35:37;;;;;;;4.32;1.00;;;31.00;73.10;;;;;;5032389;28;20045;-70
2022/06/18 12:38:11;;;;;;;3.88;0.68;;;30.90;75.20;;;;;;5032377;28;20120;-68
2022/06/18 12:41:02;;;;;;;6.88;1.13;;;30.60;76.70;;;;;;5032337;28;20124;-68
2022/06/18 12:43:56;;;;;;;4.03;1.08;;;30.60;75.60;;;;;;5032552;28;20486;-68
2022/06/18 12:46:36;;;;;;;6.97;1.10;;;30.60;73.10;;;;;;5031429;28;20474;-66
2022/06/18 12:49:08;;;;;;;4.60;1.02;;;30.40;76.60;;;;;;5032232;28;20076;-67
2022/06/18 12:52:07;;;;;;;4.87;1.10;;;30.20;76.00;;;;;;5032465;28;20555;-67
2022/06/18 12:55:01;;;;;;;4.40;0.90;;;30.30;77.50;;;;;;5027376;28;20125;-70
2022/06/18 12:57:51;;;;;;;2.28;0.75;;;30.40;78.60;;;;;;5031960;28;20037;-69
2022/06/18 13:00:46;;;;;;;5.05;0.90;;;30.40;76.10;;;;;;5032225;28;20049;-69
2022/06/18 13:03:42;;;;;;;5.53;0.70;;;30.20;77.60;;;;;;5032022;28;20482;-69
2022/06/18 13:06:33;;;;;;;3.60;0.80;;;30.00;74.90;;;;;;5031930;28;20509;-69
2022/06/18 13:09:23;;;;;;;2.83;0.70;;;29.90;79.10;;;;;;5032005;28;20437;-69
2022/06/18 13:12:06;;;;;;;3.20;0.80;;;29.90;79.80;;;;;;5032449;28;20124;-69
2022/06/18 13:14:38;;;;;;;2.85;0.70;;;29.90;80.30;;;;;;5032676;28;20099;-69
2022/06/18 13:17:11;;;;;;;;;;;29.80;80.00;;;;;;5032580;28;20063;-69
2022/06/18 13:19:42;;;;;;;3.45;0.70;;;29.60;80.70;;;;;;5031972;28;19932;-69
2022/06/18 13:22:08;;;;;;;4.50;0.82;;;29.40;80.40;;;;;;5032178;28;20120;-69